Kathy C — 2CTI7 — position and weather

sailwx.info

Track history (hours):
 
Tides and Currents Weather Stations Pressure Air Temp Water Temp Dewpoint Dewpoint Depression Visibility Wind Speed Wind Dir Waves Ship Positions

Kathy C

Last reported at 2014-Oct-28 00:07 UTC. Time now 2014-Nov-01 07:36 UTC.
Position N 34°59' W 013°35'.

Length 106 m; draft 6 m.

Type: Cargo ship. MMSI: 235075591.

Date/timePositionNaut miles runAvg speedWind from/ knotsBaromVisibWave heightAir tempDewpointWater temp
2014-Oct-28 00:07N 34°59' W 013°35'610.9
2014-Oct-27 23:32N 35°05' W 013°34'1610.9
2014-Oct-27 22:05N 35°20' W 013°28'611.0
2014-Oct-27 21:33N 35°26' W 013°26'1110.7
2014-Oct-27 20:32N 35°37' W 013°23'1110.7
2014-Oct-27 19:29N 35°48' W 013°20'2511.0
2014-Oct-27 17:14N 36°12' W 013°12'4210.8
2014-Oct-27 13:18N 36°52' W 012°57'6210.7
2014-Oct-27 07:30N 37°52' W 012°35'910.0
2014-Oct-27 06:33N 38°01' W 012°32'1110.1
2014-Oct-27 05:30N 38°11' W 012°29'1010.6
2014-Oct-27 04:32N 38°21' W 012°26'1010.4
2014-Oct-27 03:33N 38°31' W 012°22'1110.7
2014-Oct-27 02:33N 38°41' W 012°18'  
2014-Oct-23 09:33N 50°36' E 000°20'7 7.3
2014-Oct-23 08:33N 50°38' E 000°31'8 7.6
2014-Oct-23 07:33N 50°42' E 000°41'9 9.1
2014-Oct-23 06:34N 50°47' E 000°53'2310.8
2014-Oct-23 04:24N 51°02' E 001°22'810.1
2014-Oct-23 03:33N 51°07' E 001°33'8 8.4
2014-Oct-23 02:33N 51°12' E 001°43'8 7.7
2014-Oct-23 01:34N 51°19' E 001°49'7 7.5
2014-Oct-23 00:34N 51°26' E 001°52'8 8.2
2014-Oct-22 23:34N 51°34' E 001°49'10 9.5
2014-Oct-22 22:33N 51°43' E 001°45'9 9.3
2014-Oct-22 21:33N 51°51' E 001°37'8 8.0
2014-Oct-22 20:34N 51°56' E 001°26'8 7.7
2014-Oct-22 19:33N 51°60' E 001°15'4 4.4
2014-Oct-22 18:33N 52°02' E 001°10'0 0.0
2014-Oct-22 17:33N 52°02' E 001°10'0 0.0
2014-Oct-22 16:33N 52°02' E 001°10'0 0.0
2014-Oct-22 15:33N 52°02' E 001°10'0 0.0
2014-Oct-22 14:33N 52°02' E 001°10'0 0.0
2014-Oct-22 13:33N 52°02' E 001°10'0 0.0
2014-Oct-22 12:33N 52°02' E 001°10'0 0.0
2014-Oct-22 11:33N 52°02' E 001°10'0 0.0
2014-Oct-22 10:30N 52°02' E 001°10'0 0.0
2014-Oct-22 09:33N 52°02' E 001°10'0 0.0
2014-Oct-22 08:33N 52°02' E 001°10'0 0.0
2014-Oct-22 07:33N 52°02' E 001°10'0 0.0
2014-Oct-22 06:33N 52°02' E 001°10'0 0.0
2014-Oct-22 05:33N 52°02' E 001°10'0 0.0
2014-Oct-22 04:33N 52°02' E 001°10'0 0.0
2014-Oct-22 03:33N 52°02' E 001°10'0 0.0
2014-Oct-22 02:30N 52°02' E 001°10'0 0.0
2014-Oct-22 01:30N 52°02' E 001°10'0 0.0
2014-Oct-22 00:30N 52°02' E 001°10'0 0.0
2014-Oct-21 23:33N 52°02' E 001°10'0 0.0
2014-Oct-21 22:33N 52°02' E 001°10'0 0.0
2014-Oct-21 21:33N 52°02' E 001°10'0 0.0
2014-Oct-21 20:33N 52°02' E 001°10'0 0.0
2014-Oct-21 19:33N 52°02' E 001°10'0 0.0
2014-Oct-21 18:33N 52°02' E 001°10'0 0.0
2014-Oct-21 17:33N 52°02' E 001°10'0 0.0
2014-Oct-21 16:33N 52°02' E 001°10'0 0.0
2014-Oct-21 15:33N 52°02' E 001°10'0 0.0
2014-Oct-21 14:30N 52°02' E 001°10'0 0.0
2014-Oct-21 13:33N 52°02' E 001°10'0 0.0
2014-Oct-21 12:33N 52°02' E 001°10'0 0.0
2014-Oct-21 11:33N 52°02' E 001°10'0 0.0
2014-Oct-21 10:30N 52°02' E 001°10'0 0.0
2014-Oct-21 09:33N 52°02' E 001°10'0 0.0
2014-Oct-21 08:33N 52°02' E 001°10'0 0.0
2014-Oct-21 07:33N 52°02' E 001°10'0 0.0
2014-Oct-21 06:33N 52°02' E 001°10'0 0.0
2014-Oct-21 05:33N 52°02' E 001°10'0 0.0
2014-Oct-21 04:33N 52°02' E 001°10'0 0.0
2014-Oct-21 03:33N 52°02' E 001°10'0 0.0
2014-Oct-21 02:33N 52°02' E 001°10'0 0.0
2014-Oct-21 01:33N 52°02' E 001°10'0 0.0
2014-Oct-21 00:33N 52°02' E 001°10'0 0.0
2014-Oct-20 23:33N 52°02' E 001°10'0 0.0
2014-Oct-20 22:33N 52°02' E 001°10'0 0.0
2014-Oct-20 21:33N 52°02' E 001°10'0 0.0
2014-Oct-20 20:33N 52°02' E 001°10'0 0.0
2014-Oct-20 19:33N 52°02' E 001°10'0 0.0
2014-Oct-20 18:33N 52°02' E 001°10'0 0.0
2014-Oct-20 17:33N 52°02' E 001°10'0 0.0
2014-Oct-20 16:33N 52°02' E 001°10'0 0.0
2014-Oct-20 15:27N 52°02' E 001°10'0 0.0
2014-Oct-20 14:33N 52°02' E 001°10'0 0.0
2014-Oct-20 13:33N 52°02' E 001°10'0 0.0
2014-Oct-20 12:33N 52°02' E 001°10'0 0.0
2014-Oct-20 11:33N 52°02' E 001°10'0 0.0
2014-Oct-20 10:30N 52°02' E 001°10'0 0.0
2014-Oct-20 09:30N 52°02' E 001°10'0 0.0
2014-Oct-20 08:33N 52°02' E 001°10'0 0.0
2014-Oct-20 07:33N 52°02' E 001°10'0 0.0
2014-Oct-20 06:33N 52°02' E 001°10'0 0.0
2014-Oct-20 05:30N 52°02' E 001°10'0 0.0
2014-Oct-20 04:33N 52°02' E 001°10'0 0.0
2014-Oct-20 03:33N 52°02' E 001°10'0 0.0
2014-Oct-20 02:33N 52°02' E 001°10'0 0.0
2014-Oct-20 01:33N 52°02' E 001°10'0 0.0
2014-Oct-20 00:33N 52°02' E 001°10'0 0.0
2014-Oct-19 23:33N 52°02' E 001°10'0 0.0
2014-Oct-19 22:33N 52°02' E 001°10'0 0.0
2014-Oct-19 21:30N 52°02' E 001°10'0 0.0
2014-Oct-19 20:33N 52°02' E 001°10'0 0.0
2014-Oct-19 19:33N 52°02' E 001°10'0 0.0
2014-Oct-19 18:33N 52°02' E 001°10'0 0.0
2014-Oct-19 17:33N 52°02' E 001°10'0 0.0
2014-Oct-19 16:33N 52°02' E 001°10'0 0.0
2014-Oct-19 15:33N 52°02' E 001°10'0 0.0
2014-Oct-19 14:33N 52°02' E 001°10'0 0.0
2014-Oct-19 13:33N 52°02' E 001°10'0 0.0
2014-Oct-19 12:33N 52°02' E 001°10'0 0.0
2014-Oct-19 11:33N 52°02' E 001°10'0 0.0
2014-Oct-19 10:30N 52°02' E 001°10'0 0.0
2014-Oct-19 09:33N 52°02' E 001°10'0 0.0
2014-Oct-19 08:33N 52°02' E 001°10'0 0.0
2014-Oct-19 07:33N 52°02' E 001°10'0 0.0
2014-Oct-19 06:33N 52°02' E 001°10'0 0.0
2014-Oct-19 05:33N 52°02' E 001°10'0 0.0
2014-Oct-19 04:30N 52°02' E 001°10'0 0.0
2014-Oct-19 03:33N 52°02' E 001°10'0 0.0
2014-Oct-19 02:33N 52°02' E 001°10'0 0.0
2014-Oct-19 01:33N 52°02' E 001°10'0 0.0
2014-Oct-19 00:33N 52°02' E 001°10'0 0.0
2014-Oct-18 23:33N 52°02' E 001°10'0 0.0
2014-Oct-18 22:33N 52°02' E 001°10'0 0.0
2014-Oct-18 21:33N 52°02' E 001°10'0 0.0
2014-Oct-18 20:33N 52°02' E 001°10'0 0.0
2014-Oct-18 19:30N 52°02' E 001°10'0 0.0
2014-Oct-18 18:33N 52°02' E 001°10'0 0.0
2014-Oct-18 17:33N 52°02' E 001°10'0 0.1
2014-Oct-18 16:33N 52°02' E 001°09'4 4.1
2014-Oct-18 15:33N 51°60' E 001°15'8 7.9
2014-Oct-18 14:33N 51°56' E 001°26'9 8.6
2014-Oct-18 13:34N 52°02' E 001°37'3 3.1
2014-Oct-18 12:33N 52°04' E 001°40'1 0.9
2014-Oct-18 11:33N 52°05' E 001°42'2 2.4
2014-Oct-18 10:33N 52°07' E 001°41'9 8.7
2014-Oct-18 09:33N 52°15' E 001°45'9 8.9
2014-Oct-18 08:33N 52°24' E 001°51'9 8.8
2014-Oct-18 07:33N 52°32' E 001°54'9 9.3
2014-Oct-18 06:33N 52°41' E 001°55'1010.3
2014-Oct-18 05:33N 52°50' E 001°46'1111.5
2014-Oct-18 04:33N 52°58' E 001°32'1211.5
2014-Oct-18 03:33N 53°08' E 001°22'  
Track history (hours):
 
Tides and Currents Weather Stations Pressure Air Temp Water Temp Dewpoint Dewpoint Depression Visibility Wind Speed Wind Dir Waves Ship Positions

Kathy C

Last reported at 2014-Oct-28 00:07 UTC. Time now 2014-Nov-01 07:36 UTC.
Position N 34°59' W 013°35'.

Length 106 m; draft 6 m.

Type: Cargo ship. MMSI: 235075591.

Date/timePositionNaut miles runAvg speedWind from/ knotsBaromVisibWave heightAir tempDewpointWater temp
2014-Oct-28 00:07N 34°59' W 013°35'610.9
2014-Oct-27 23:32N 35°05' W 013°34'1610.9
2014-Oct-27 22:05N 35°20' W 013°28'611.0
2014-Oct-27 21:33N 35°26' W 013°26'1110.7
2014-Oct-27 20:32N 35°37' W 013°23'1110.7
2014-Oct-27 19:29N 35°48' W 013°20'2511.0
2014-Oct-27 17:14N 36°12' W 013°12'4210.8
2014-Oct-27 13:18N 36°52' W 012°57'6210.7
2014-Oct-27 07:30N 37°52' W 012°35'910.0
2014-Oct-27 06:33N 38°01' W 012°32'1110.1
2014-Oct-27 05:30N 38°11' W 012°29'1010.6
2014-Oct-27 04:32N 38°21' W 012°26'1010.4
2014-Oct-27 03:33N 38°31' W 012°22'1110.7
2014-Oct-27 02:33N 38°41' W 012°18'  
2014-Oct-23 09:33N 50°36' E 000°20'7 7.3
2014-Oct-23 08:33N 50°38' E 000°31'8 7.6
2014-Oct-23 07:33N 50°42' E 000°41'9 9.1
2014-Oct-23 06:34N 50°47' E 000°53'2310.8
2014-Oct-23 04:24N 51°02' E 001°22'810.1
2014-Oct-23 03:33N 51°07' E 001°33'8 8.4
2014-Oct-23 02:33N 51°12' E 001°43'8 7.7
2014-Oct-23 01:34N 51°19' E 001°49'7 7.5
2014-Oct-23 00:34N 51°26' E 001°52'8 8.2
2014-Oct-22 23:34N 51°34' E 001°49'10 9.5
2014-Oct-22 22:33N 51°43' E 001°45'9 9.3
2014-Oct-22 21:33N 51°51' E 001°37'8 8.0
2014-Oct-22 20:34N 51°56' E 001°26'8 7.7
2014-Oct-22 19:33N 51°60' E 001°15'4 4.4
2014-Oct-22 18:33N 52°02' E 001°10'0 0.0
2014-Oct-22 17:33N 52°02' E 001°10'0 0.0
2014-Oct-22 16:33N 52°02' E 001°10'0 0.0
2014-Oct-22 15:33N 52°02' E 001°10'0 0.0
2014-Oct-22 14:33N 52°02' E 001°10'0 0.0
2014-Oct-22 13:33N 52°02' E 001°10'0 0.0
2014-Oct-22 12:33N 52°02' E 001°10'0 0.0
2014-Oct-22 11:33N 52°02' E 001°10'0 0.0
2014-Oct-22 10:30N 52°02' E 001°10'0 0.0
2014-Oct-22 09:33N 52°02' E 001°10'0 0.0
2014-Oct-22 08:33N 52°02' E 001°10'0 0.0
2014-Oct-22 07:33N 52°02' E 001°10'0 0.0
2014-Oct-22 06:33N 52°02' E 001°10'0 0.0
2014-Oct-22 05:33N 52°02' E 001°10'0 0.0
2014-Oct-22 04:33N 52°02' E 001°10'0 0.0
2014-Oct-22 03:33N 52°02' E 001°10'0 0.0
2014-Oct-22 02:30N 52°02' E 001°10'0 0.0
2014-Oct-22 01:30N 52°02' E 001°10'0 0.0
2014-Oct-22 00:30N 52°02' E 001°10'0 0.0
2014-Oct-21 23:33N 52°02' E 001°10'0 0.0
2014-Oct-21 22:33N 52°02' E 001°10'0 0.0
2014-Oct-21 21:33N 52°02' E 001°10'0 0.0
2014-Oct-21 20:33N 52°02' E 001°10'0 0.0
2014-Oct-21 19:33N 52°02' E 001°10'0 0.0
2014-Oct-21 18:33N 52°02' E 001°10'0 0.0
2014-Oct-21 17:33N 52°02' E 001°10'0 0.0
2014-Oct-21 16:33N 52°02' E 001°10'0 0.0
2014-Oct-21 15:33N 52°02' E 001°10'0 0.0
2014-Oct-21 14:30N 52°02' E 001°10'0 0.0
2014-Oct-21 13:33N 52°02' E 001°10'0 0.0
2014-Oct-21 12:33N 52°02' E 001°10'0 0.0
2014-Oct-21 11:33N 52°02' E 001°10'0 0.0
2014-Oct-21 10:30N 52°02' E 001°10'0 0.0
2014-Oct-21 09:33N 52°02' E 001°10'0 0.0
2014-Oct-21 08:33N 52°02' E 001°10'0 0.0
2014-Oct-21 07:33N 52°02' E 001°10'0 0.0
2014-Oct-21 06:33N 52°02' E 001°10'0 0.0
2014-Oct-21 05:33N 52°02' E 001°10'0 0.0
2014-Oct-21 04:33N 52°02' E 001°10'0 0.0
2014-Oct-21 03:33N 52°02' E 001°10'0 0.0
2014-Oct-21 02:33N 52°02' E 001°10'0 0.0
2014-Oct-21 01:33N 52°02' E 001°10'0 0.0
2014-Oct-21 00:33N 52°02' E 001°10'0 0.0
2014-Oct-20 23:33N 52°02' E 001°10'0 0.0
2014-Oct-20 22:33N 52°02' E 001°10'0 0.0
2014-Oct-20 21:33N 52°02' E 001°10'0 0.0
2014-Oct-20 20:33N 52°02' E 001°10'0 0.0
2014-Oct-20 19:33N 52°02' E 001°10'0 0.0
2014-Oct-20 18:33N 52°02' E 001°10'0 0.0
2014-Oct-20 17:33N 52°02' E 001°10'0 0.0
2014-Oct-20 16:33N 52°02' E 001°10'0 0.0
2014-Oct-20 15:27N 52°02' E 001°10'0 0.0
2014-Oct-20 14:33N 52°02' E 001°10'0 0.0
2014-Oct-20 13:33N 52°02' E 001°10'0 0.0
2014-Oct-20 12:33N 52°02' E 001°10'0 0.0
2014-Oct-20 11:33N 52°02' E 001°10'0 0.0
2014-Oct-20 10:30N 52°02' E 001°10'0 0.0
2014-Oct-20 09:30N 52°02' E 001°10'0 0.0
2014-Oct-20 08:33N 52°02' E 001°10'0 0.0
2014-Oct-20 07:33N 52°02' E 001°10'0 0.0
2014-Oct-20 06:33N 52°02' E 001°10'0 0.0
2014-Oct-20 05:30N 52°02' E 001°10'0 0.0
2014-Oct-20 04:33N 52°02' E 001°10'0 0.0
2014-Oct-20 03:33N 52°02' E 001°10'0 0.0
2014-Oct-20 02:33N 52°02' E 001°10'0 0.0
2014-Oct-20 01:33N 52°02' E 001°10'0 0.0
2014-Oct-20 00:33N 52°02' E 001°10'0 0.0
2014-Oct-19 23:33N 52°02' E 001°10'0 0.0
2014-Oct-19 22:33N 52°02' E 001°10'0 0.0
2014-Oct-19 21:30N 52°02' E 001°10'0 0.0
2014-Oct-19 20:33N 52°02' E 001°10'0 0.0
2014-Oct-19 19:33N 52°02' E 001°10'0 0.0
2014-Oct-19 18:33N 52°02' E 001°10'0 0.0
2014-Oct-19 17:33N 52°02' E 001°10'0 0.0
2014-Oct-19 16:33N 52°02' E 001°10'0 0.0
2014-Oct-19 15:33N 52°02' E 001°10'0 0.0
2014-Oct-19 14:33N 52°02' E 001°10'0 0.0
2014-Oct-19 13:33N 52°02' E 001°10'0 0.0
2014-Oct-19 12:33N 52°02' E 001°10'0 0.0
2014-Oct-19 11:33N 52°02' E 001°10'0 0.0
2014-Oct-19 10:30N 52°02' E 001°10'0 0.0
2014-Oct-19 09:33N 52°02' E 001°10'0 0.0
2014-Oct-19 08:33N 52°02' E 001°10'0 0.0
2014-Oct-19 07:33N 52°02' E 001°10'0 0.0
2014-Oct-19 06:33N 52°02' E 001°10'0 0.0
2014-Oct-19 05:33N 52°02' E 001°10'0 0.0
2014-Oct-19 04:30N 52°02' E 001°10'0 0.0
2014-Oct-19 03:33N 52°02' E 001°10'0 0.0
2014-Oct-19 02:33N 52°02' E 001°10'0 0.0
2014-Oct-19 01:33N 52°02' E 001°10'0 0.0
2014-Oct-19 00:33N 52°02' E 001°10'0 0.0
2014-Oct-18 23:33N 52°02' E 001°10'0 0.0
2014-Oct-18 22:33N 52°02' E 001°10'0 0.0
2014-Oct-18 21:33N 52°02' E 001°10'0 0.0
2014-Oct-18 20:33N 52°02' E 001°10'0 0.0
2014-Oct-18 19:30N 52°02' E 001°10'0 0.0
2014-Oct-18 18:33N 52°02' E 001°10'0 0.0
2014-Oct-18 17:33N 52°02' E 001°10'0 0.1
2014-Oct-18 16:33N 52°02' E 001°09'4 4.1
2014-Oct-18 15:33N 51°60' E 001°15'8 7.9
2014-Oct-18 14:33N 51°56' E 001°26'9 8.6
2014-Oct-18 13:34N 52°02' E 001°37'3 3.1
2014-Oct-18 12:33N 52°04' E 001°40'1 0.9
2014-Oct-18 11:33N 52°05' E 001°42'2 2.4
2014-Oct-18 10:33N 52°07' E 001°41'9 8.7
2014-Oct-18 09:33N 52°15' E 001°45'9 8.9
2014-Oct-18 08:33N 52°24' E 001°51'9 8.8
2014-Oct-18 07:33N 52°32' E 001°54'9 9.3
2014-Oct-18 06:33N 52°41' E 001°55'1010.3
2014-Oct-18 05:33N 52°50' E 001°46'1111.5
2014-Oct-18 04:33N 52°58' E 001°32'1211.5
2014-Oct-18 03:33N 53°08' E 001°22'  

Dump ship's entire track history